Time;durP1;ratioP1;P1;durP2;ratioP2;P2;SDS_P1;SDS_P2;PMS_P1;PMS_P2;Temp;Humidity;BMP_temperature;BMP_pressure;BME280_temperature;BME280_humidity;BME280_pressure;Samples;Min_cycle;Max_cycle;Signal;HPM_P1;HPM_P2
2022/11/25 00:01:56;;;;;;;13.18;4.75;;;;;;;8.06;100.00;100899.38;5210037;28;20448;-67
2022/11/25 00:04:27;;;;;;;7.18;5.05;;;;;;;8.23;100.00;100907.50;5210239;28;20053;-67
2022/11/25 00:06:58;;;;;;;11.10;5.53;;;;;;;8.27;100.00;100901.41;5210273;28;20025;-67
2022/11/25 00:09:28;;;;;;;20.27;7.10;;;;;;;8.27;100.00;100905.97;5228286;28;20412;-67
2022/11/25 00:11:59;;;;;;;13.23;5.40;;;;;;;8.21;100.00;100906.91;5209859;28;20378;-67
2022/11/25 00:14:29;;;;;;;14.05;5.38;;;;;;;8.20;100.00;100894.50;5210328;28;20503;-67
2022/11/25 00:17:00;;;;;;;10.60;4.78;;;;;;;8.15;100.00;100876.41;5210199;28;20043;-67
2022/11/25 00:19:30;;;;;;;21.63;5.35;;;;;;;8.18;100.00;100877.78;5210108;28;20085;-67
2022/11/25 00:22:00;;;;;;;25.77;6.35;;;;;;;8.27;100.00;100879.06;5209682;28;20374;-66
2022/11/25 00:24:31;;;;;;;10.68;5.60;;;;;;;8.38;100.00;100888.97;5209842;28;20503;-67
2022/11/25 00:27:03;;;;;;;8.55;4.35;;;;;;;8.45;100.00;100890.47;5209968;28;20497;-67
2022/11/25 00:29:34;;;;;;;7.72;5.47;;;;;;;8.49;100.00;100882.72;5209743;28;20036;-67
2022/11/25 00:32:04;;;;;;;10.85;5.93;;;;;;;8.53;100.00;100878.50;5209808;28;20397;-67
2022/11/25 00:34:35;;;;;;;15.23;4.88;;;;;;;8.61;100.00;100880.81;5209393;28;20071;-67
2022/11/25 00:37:05;;;;;;;19.48;6.30;;;;;;;8.68;100.00;100884.13;5227123;28;20036;-66
2022/11/25 00:39:36;;;;;;;8.15;3.90;;;;;;;8.71;100.00;100891.72;5209188;28;20024;-66
2022/11/25 00:44:58;;;;;;;20.13;6.32;;;;;;;8.82;100.00;100892.72;5227675;28;20543;-67
2022/11/25 00:47:29;;;;;;;11.57;5.78;;;;;;;8.90;100.00;100895.03;5226754;28;20032;-67
2022/11/25 00:49:59;;;;;;;10.93;4.45;;;;;;;8.93;100.00;100891.84;5226630;28;20024;-67
2022/11/25 00:52:30;;;;;;;15.48;6.60;;;;;;;9.00;100.00;100897.88;5226815;28;20025;-67
2022/11/25 00:55:00;;;;;;;10.65;5.22;;;;;;;8.99;100.00;100887.34;5209329;28;20021;-66
2022/11/25 00:57:30;;;;;;;5.72;3.88;;;;;;;9.13;100.00;100896.75;5208826;28;20050;-67
2022/11/25 01:00:01;;;;;;;8.05;4.90;;;;;;;9.04;100.00;100911.66;5208397;28;20094;-67
2022/11/25 01:02:31;;;;;;;14.25;6.05;;;;;;;9.10;100.00;100933.06;5209120;28;20017;-65
2022/11/25 01:05:02;;;;;;;12.15;5.75;;;;;;;8.98;100.00;100939.56;5226279;28;20029;-67
2022/11/25 01:07:32;;;;;;;11.95;6.03;;;;;;;8.80;100.00;100932.53;5209007;28;20049;-66
2022/11/25 01:10:03;;;;;;;8.80;3.65;;;;;;;8.83;100.00;100948.22;5208146;28;20039;-67
2022/11/25 01:12:34;;;;;;;23.02;7.13;;;;;;;8.73;100.00;100962.31;5226166;28;20021;-67
2022/11/25 01:15:05;;;;;;;12.57;4.75;;;;;;;8.65;100.00;100961.91;5208563;28;20036;-67
2022/11/25 01:17:36;;;;;;;8.38;3.70;;;;;;;8.57;100.00;100963.09;5208346;28;20078;-67
2022/11/25 01:20:07;;;;;;;15.13;5.45;;;;;;;8.50;100.00;100961.59;5208448;28;20025;-67
2022/11/25 01:22:37;;;;;;;4.05;3.35;;;;;;;8.41;100.00;100967.34;5208146;28;20037;-67
2022/11/25 01:25:08;;;;;;;9.43;5.20;;;;;;;8.33;100.00;100969.63;5208288;28;20066;-68
2022/11/25 01:27:41;;;;;;;8.02;2.90;;;;;;;8.28;100.00;100983.75;5208008;28;20541;-67
2022/11/25 01:30:13;;;;;;;4.43;4.03;;;;;;;8.22;100.00;100981.19;5207918;28;20032;-67
2022/11/25 01:32:43;;;;;;;4.13;2.95;;;;;;;8.16;100.00;100991.00;5208090;28;20035;-66
2022/11/25 01:35:14;;;;;;;6.70;3.35;;;;;;;8.10;100.00;100986.56;5208147;28;20029;-66
2022/11/25 01:37:44;;;;;;;4.30;2.65;;;;;;;8.06;100.00;100990.81;5207844;28;20077;-67
2022/11/25 01:40:15;;;;;;;2.30;2.13;;;;;;;8.04;100.00;101000.97;5207716;28;20029;-64
2022/11/25 01:42:46;;;;;;;3.35;3.05;;;;;;;8.01;100.00;101002.28;5225990;28;20107;-66
2022/11/25 01:45:23;;;;;;;3.63;3.28;;;;;;;7.99;100.00;101012.44;5208017;28;20028;-67
2022/11/25 01:47:58;;;;;;;5.85;3.33;;;;;;;7.77;100.00;100988.03;5208077;28;20116;-66
2022/11/25 01:50:31;;;;;;;5.65;5.10;;;;;;;7.92;100.00;101029.75;5225370;28;20040;-67
2022/11/25 01:53:07;;;;;;;5.90;4.55;;;;;;;7.89;100.00;101016.75;5225571;28;20032;-67
2022/11/25 01:55:40;;;;;;;9.32;3.88;;;;;;;7.84;100.00;101025.53;5207870;28;20055;-67
2022/11/25 01:58:20;;;;;;;5.90;4.35;;;;;;;7.80;100.00;101019.78;5207623;28;20017;-66
2022/11/25 02:00:51;;;;;;;5.90;3.75;;;;;;;7.77;100.00;101011.41;5206824;28;20036;-66
2022/11/25 02:03:26;;;;;;;3.20;2.88;;;;;;;7.73;100.00;101019.13;5207577;28;20393;-67
2022/11/25 02:06:12;;;;;;;3.78;3.47;;;;;;;7.70;100.00;101018.75;5225688;28;20093;-66
2022/11/25 02:08:47;;;;;;;3.55;3.15;;;;;;;7.65;100.00;101008.69;5207723;28;20097;-66
2022/11/25 02:11:20;;;;;;;6.38;2.80;;;;;;;7.61;100.00;101004.84;5207267;28;20059;-67
2022/11/25 02:13:52;;;;;;;3.90;2.78;;;;;;;7.60;100.00;100988.94;5207709;28;20059;-67
2022/11/25 02:16:22;;;;;;;4.57;3.10;;;;;;;7.60;100.00;100983.56;5207481;28;20032;-67
2022/11/25 02:18:53;;;;;;;2.80;2.70;;;;;;;7.58;100.00;100966.84;5225355;28;20378;-67
2022/11/25 02:21:30;;;;;;;6.45;3.17;;;;;;;7.54;100.00;100906.56;5206958;28;20017;-67
2022/11/25 02:24:12;;;;;;;3.40;3.20;;;;;;;7.54;100.00;100945.00;5225404;28;20054;-67
2022/11/25 02:26:43;;;;;;;3.25;3.03;;;;;;;7.51;100.00;100963.50;5207544;28;20112;-67
2022/11/25 02:29:13;;;;;;;2.10;2.05;;;;;;;7.49;100.00;100969.09;5207565;28;20121;-67
2022/11/25 02:31:43;;;;;;;2.63;2.53;;;;;;;7.44;100.00;100956.34;5207099;28;20068;-67
2022/11/25 02:34:14;;;;;;;2.63;2.50;;;;;;;7.43;100.00;100940.47;5207353;28;20029;-66
2022/11/25 02:36:44;;;;;;;6.07;3.03;;;;;;;7.42;100.00;100947.72;5207268;28;20366;-67
2022/11/25 02:39:17;;;;;;;5.20;2.85;;;;;;;7.37;100.00;100966.38;5207468;28;20489;-66
2022/11/25 02:41:54;;;;;;;3.47;3.13;;;;;;;7.39;100.00;100960.78;5225012;28;20029;-67
2022/11/25 02:44:25;;;;;;;5.82;2.53;;;;;;;7.37;100.00;100944.06;5207389;28;20025;-67
2022/11/25 02:46:56;;;;;;;5.50;3.60;;;;;;;7.38;100.00;100925.03;5207031;28;20047;-67
2022/11/25 02:49:26;;;;;;;4.30;3.10;;;;;;;7.38;100.00;100903.53;5207105;28;20029;-67
2022/11/25 02:51:57;;;;;;;2.85;2.65;;;;;;;7.36;100.00;100894.91;5221701;22;20091;-67
2022/11/25 02:54:27;;;;;;;3.30;2.40;;;;;;;7.33;100.00;100932.16;5216574;28;20044;-68
2022/11/25 02:56:58;;;;;;;3.70;2.80;;;;;;;7.29;100.00;100972.09;5228090;28;20392;-68
2022/11/25 02:59:28;;;;;;;2.20;2.10;;;;;;;7.26;100.00;100991.34;5227799;28;20392;-68
2022/11/25 03:01:58;;;;;;;2.88;2.65;;;;;;;7.25;100.00;101013.88;5227830;28;20450;-68
2022/11/25 03:04:29;;;;;;;4.45;1.90;;;;;;;7.25;100.00;101011.19;5227717;28;20530;-69
2022/11/25 03:06:59;;;;;;;1.83;1.73;;;;;;;7.25;100.00;101011.19;5227827;28;20488;-69
2022/11/25 03:09:30;;;;;;;2.08;2.00;;;;;;;7.26;100.00;101022.75;5228140;28;20506;-68
2022/11/25 03:12:18;;;;;;;3.00;2.33;;;;;;;7.27;100.00;101029.78;5231507;28;20025;-69
2022/11/25 03:14:49;;;;;;;2.20;2.10;;;;;;;7.27;100.00;101033.28;5232583;28;20028;-69
2022/11/25 03:17:19;;;;;;;3.22;2.95;;;;;;;7.24;100.00;101031.06;5242760;28;20054;-70
2022/11/25 03:23:16;;;;;;;3.83;2.97;;;;;;;7.09;100.00;101014.56;5262984;28;20518;-68
2022/11/25 03:25:47;;;;;;;3.20;3.05;;;;;;;7.08;100.00;101043.28;5237952;28;20025;-68
2022/11/25 03:28:17;;;;;;;5.40;3.28;;;;;;;7.00;100.00;101058.88;5232715;28;20025;-69
2022/11/25 03:30:48;;;;;;;2.70;2.60;;;;;;;6.93;100.00;101067.03;5232714;28;20032;-69
2022/11/25 03:33:18;;;;;;;2.95;2.75;;;;;;;6.66;100.00;101039.69;5233284;28;20056;-70
2022/11/25 03:35:49;;;;;;;2.53;2.33;;;;;;;6.73;100.00;101067.28;5232863;28;20098;-68
2022/11/25 03:38:19;;;;;;;2.20;2.10;;;;;;;6.68;100.00;101069.81;5232879;28;20021;-68
2022/11/25 03:40:50;;;;;;;2.50;2.35;;;;;;;6.65;100.00;101070.25;5232369;28;20028;-70
2022/11/25 03:43:20;;;;;;;3.85;3.08;;;;;;;6.58;100.00;101064.19;5232287;28;20514;-69
2022/11/25 03:45:51;;;;;;;2.83;2.35;;;;;;;6.53;100.00;101069.41;5232508;28;20109;-68
2022/11/25 03:48:21;;;;;;;2.13;2.03;;;;;;;6.23;100.00;101041.66;5213996;28;20481;-68
2022/11/25 03:50:51;;;;;;;2.95;2.75;;;;;;;6.40;100.00;101072.22;5211565;28;20037;-69
2022/11/25 03:53:22;;;;;;;10.68;3.10;;;;;;;6.34;100.00;101073.13;5211646;28;20043;-68
2022/11/25 03:55:52;;;;;;;2.25;2.20;;;;;;;6.27;100.00;101077.72;5211521;28;20021;-69
2022/11/25 03:58:23;;;;;;;1.92;1.77;;;;;;;6.28;100.00;101071.31;5211636;28;20028;-68
2022/11/25 04:00:53;;;;;;;2.42;2.33;;;;;;;6.21;100.00;101065.22;5211375;28;20021;-68
2022/11/25 04:03:24;;;;;;;2.42;2.05;;;;;;;6.21;100.00;101063.34;5211575;28;20021;-68
2022/11/25 04:05:54;;;;;;;2.53;2.28;;;;;;;6.21;100.00;101070.56;5211584;28;20414;-70
2022/11/25 04:08:26;;;;;;;4.22;3.13;;;;;;;6.22;100.00;101080.25;5211378;28;20047;-69
2022/11/25 04:10:56;;;;;;;3.05;2.20;;;;;;;6.24;100.00;101073.63;5210947;28;20134;-69
2022/11/25 04:13:27;;;;;;;4.25;2.50;;;;;;;6.36;100.00;101087.09;5211345;28;20021;-69
2022/11/25 04:15:57;;;;;;;2.25;2.05;;;;;;;6.42;100.00;101089.72;5229266;28;20032;-69
2022/11/25 04:18:28;;;;;;;4.65;3.03;;;;;;;6.49;100.00;101107.63;5211263;28;20029;-69
2022/11/25 04:20:59;;;;;;;4.22;2.47;;;;;;;6.43;100.00;101098.59;5228595;28;20021;-68
2022/11/25 04:23:29;;;;;;;1.90;1.80;;;;;;;6.34;100.00;101090.03;5210254;28;20082;-68
2022/11/25 04:25:59;;;;;;;2.75;2.55;;;;;;;6.26;100.00;101092.19;5211037;28;20025;-68
2022/11/25 04:28:30;;;;;;;5.60;2.88;;;;;;;6.16;100.00;101110.63;5211099;28;20020;-68
2022/11/25 04:34:49;;;;;;;9.38;2.80;;;;;;;6.07;100.00;101120.81;5228483;28;20032;-68
2022/11/25 04:37:20;;;;;;;3.95;3.63;;;;;;;6.04;100.00;101130.13;5210850;28;20358;-69
2022/11/25 04:39:50;;;;;;;2.65;2.55;;;;;;;5.99;100.00;101131.81;5210509;28;20037;-69
2022/11/25 04:45:15;;;;;;;9.50;2.92;;;;;;;5.84;100.00;101128.59;5228586;28;20395;-68
2022/11/25 04:47:46;;;;;;;3.92;3.72;;;;;;;5.80;100.00;101141.63;5228445;28;20025;-69
2022/11/25 04:50:19;;;;;;;3.95;3.58;;;;;;;5.77;100.00;101139.41;5210279;28;20036;-69
2022/11/25 04:52:50;;;;;;;3.75;3.55;;;;;;;5.69;100.00;101126.25;5210616;28;20060;-70
2022/11/25 04:55:20;;;;;;;4.97;4.30;;;;;;;5.78;100.00;101138.31;5244985;23;20056;-67
2022/11/25 04:57:51;;;;;;;3.75;3.50;;;;;;;5.71;100.00;101137.59;5250194;28;20016;-67
2022/11/25 05:00:21;;;;;;;4.35;4.05;;;;;;;5.70;100.00;101139.44;5245709;28;20048;-68
2022/11/25 05:02:52;;;;;;;3.92;3.80;;;;;;;5.76;100.00;101148.47;5229472;28;20020;-67
2022/11/25 05:05:23;;;;;;;4.45;4.15;;;;;;;5.77;100.00;101147.44;5229312;28;20035;-67
2022/11/25 05:07:53;;;;;;;4.13;3.92;;;;;;;5.75;100.00;101146.81;5247259;28;20090;-67
2022/11/25 05:10:24;;;;;;;8.25;4.57;;;;;;;5.76;100.00;101146.63;5228769;28;20024;-68
2022/11/25 05:12:54;;;;;;;4.28;3.78;;;;;;;5.84;100.00;101144.69;5229190;28;20488;-66
2022/11/25 05:15:24;;;;;;;8.63;4.40;;;;;;;5.83;100.00;101151.06;5247180;28;20031;-67
2022/11/25 05:17:55;;;;;;;9.27;4.45;;;;;;;5.87;100.00;101152.28;5229193;28;20107;-67
2022/11/25 05:20:25;;;;;;;4.93;4.53;;;;;;;5.89;100.00;101150.25;5212251;28;20029;-66
2022/11/25 05:22:56;;;;;;;4.55;4.15;;;;;;;5.91;100.00;101149.00;5229069;28;20082;-66
2022/11/25 05:25:27;;;;;;;9.25;4.60;;;;;;;5.99;100.00;101154.09;5228794;28;20030;-66
2022/11/25 05:27:57;;;;;;;6.32;3.97;;;;;;;5.97;100.00;101142.75;5228518;28;20051;-66
2022/11/25 05:30:28;;;;;;;6.22;4.55;;;;;;;6.12;100.00;101160.38;5246249;28;20465;-66
2022/11/25 05:32:58;;;;;;;5.25;4.38;;;;;;;6.14;100.00;101167.16;5228822;28;20039;-66
2022/11/25 05:35:29;;;;;;;9.68;4.38;;;;;;;6.16;100.00;101177.66;5227883;28;20020;-66
2022/11/25 05:38:00;;;;;;;4.47;4.18;;;;;;;6.14;100.00;101171.69;5228568;28;20461;-67
2022/11/25 05:40:30;;;;;;;6.65;4.38;;;;;;;6.08;100.00;101176.88;5228350;28;20032;-67
2022/11/25 05:43:02;;;;;;;11.65;4.57;;;;;;;6.03;100.00;101176.75;5228774;28;20028;-67
2022/11/25 05:45:32;;;;;;;5.65;4.25;;;;;;;5.99;100.00;101177.41;5228703;28;20511;-67
2022/11/25 05:48:03;;;;;;;7.25;4.68;;;;;;;5.90;100.00;101186.72;5228384;28;20056;-67
2022/11/25 05:50:33;;;;;;;3.80;3.22;;;;;;;5.88;100.00;101186.91;5228152;28;20036;-67
2022/11/25 05:53:04;;;;;;;10.25;5.03;;;;;;;5.80;100.00;101184.50;5228794;28;20032;-67
2022/11/25 05:55:34;;;;;;;5.78;4.70;;;;;;;5.76;100.00;101202.06;5228513;28;20111;-67
2022/11/25 05:58:05;;;;;;;12.80;4.70;;;;;;;5.71;100.00;101202.72;5228307;28;20468;-67
2022/11/25 06:00:35;;;;;;;7.13;6.07;;;;;;;5.65;100.00;101203.56;5228039;28;20062;-67
2022/11/25 06:03:06;;;;;;;6.00;5.55;;;;;;;5.58;100.00;101212.66;5228421;28;20039;-66
2022/11/25 06:05:37;;;;;;;6.18;4.75;;;;;;;5.57;100.00;101219.06;5228330;28;20081;-67
2022/11/25 06:08:08;;;;;;;4.55;4.25;;;;;;;5.52;100.00;101230.41;5228504;28;20020;-68
2022/11/25 06:10:39;;;;;;;8.43;5.07;;;;;;;5.43;100.00;101221.00;5246410;28;20028;-67
2022/11/25 06:13:10;;;;;;;4.65;3.75;;;;;;;5.43;100.00;101234.38;5228309;28;20024;-66
2022/11/25 06:15:42;;;;;;;8.70;4.68;;;;;;;5.37;100.00;101230.69;5228622;28;20028;-67
2022/11/25 06:18:15;;;;;;;5.60;4.47;;;;;;;5.33;100.00;101234.81;5229928;28;20423;-67
2022/11/25 06:20:55;;;;;;;9.23;5.05;;;;;;;5.29;100.00;101236.28;5228295;28;20025;-68
2022/11/25 06:23:26;;;;;;;;;;;;;;;5.24;100.00;101241.44;5247579;28;20056;-67
2022/11/25 06:26:05;;;;;;;7.45;4.57;;;;;;;5.20;100.00;101242.91;5228917;28;19956;-67
2022/11/25 06:28:35;;;;;;;6.27;5.17;;;;;;;5.14;100.00;101243.78;5228290;28;20048;-67
2022/11/25 06:31:12;;;;;;;4.80;4.50;;;;;;;5.09;100.00;101246.25;5228081;28;20060;-67
2022/11/25 06:33:46;;;;;;;9.10;5.75;;;;;;;5.03;100.00;101241.72;5246521;28;20052;-67
2022/11/25 06:36:18;;;;;;;8.10;5.05;;;;;;;5.02;100.00;101251.63;5246158;28;20024;-68
2022/11/25 06:38:52;;;;;;;8.27;5.25;;;;;;;4.96;100.00;101251.63;5228152;28;20012;-68
2022/11/25 06:41:22;;;;;;;5.63;5.13;;;;;;;4.88;100.00;101244.66;5228083;28;20478;-67
2022/11/25 06:43:53;;;;;;;5.95;5.32;;;;;;;4.87;100.00;101252.91;5228314;28;20024;-68
2022/11/25 06:46:23;;;;;;;5.70;4.07;;;;;;;4.85;100.00;101261.13;5230316;28;20502;-67
2022/11/25 06:48:54;;;;;;;8.30;5.40;;;;;;;4.70;100.00;101241.78;5231475;28;20048;-67
2022/11/25 06:51:24;;;;;;;8.25;5.18;;;;;;;4.83;100.00;101259.69;5231676;28;20155;-68
2022/11/25 06:53:55;;;;;;;7.32;4.25;;;;;;;4.82;100.00;101264.22;5228696;28;20029;-68
2022/11/25 06:56:27;;;;;;;7.85;5.43;;;;;;;4.81;100.00;101267.94;5231817;28;20024;-68
2022/11/25 06:58:57;;;;;;;9.43;5.90;;;;;;;4.74;100.00;101261.75;5231806;28;20085;-68
2022/11/25 07:01:29;;;;;;;6.53;5.30;;;;;;;4.79;100.00;101272.66;5229831;28;20036;-68
2022/11/25 07:04:03;;;;;;;26.90;6.28;;;;;;;4.82;100.00;101276.78;5231501;28;20063;-68
2022/11/25 07:06:33;;;;;;;6.45;5.95;;;;;;;4.81;100.00;101280.47;5230610;28;20032;-67
2022/11/25 07:09:04;;;;;;;4.45;4.05;;;;;;;4.78;100.00;101286.25;5228924;28;20039;-68
2022/11/25 07:11:38;;;;;;;10.45;5.20;;;;;;;4.75;100.00;101298.19;5230193;28;20062;-69
2022/11/25 07:14:11;;;;;;;15.63;5.65;;;;;;;4.73;100.00;101298.38;5230576;28;20033;-68
2022/11/25 07:16:43;;;;;;;11.00;6.13;;;;;;;4.71;100.00;101313.81;5231607;28;20324;-68
2022/11/25 07:19:17;;;;;;;10.95;6.15;;;;;;;4.65;100.00;101300.44;5231793;28;20187;-68
2022/11/25 07:21:47;;;;;;;6.30;4.53;;;;;;;4.73;100.00;101322.47;5231098;28;20048;-68
2022/11/25 07:24:19;;;;;;;4.28;3.90;;;;;;;4.74;100.00;101325.97;5215100;28;20055;-68
2022/11/25 07:26:49;;;;;;;4.90;4.00;;;;;;;4.77;100.00;101336.25;5231351;28;20029;-68
2022/11/25 07:29:20;;;;;;;5.78;5.47;;;;;;;4.75;100.00;101333.78;5231281;28;20025;-68
2022/11/25 07:31:50;;;;;;;9.90;6.32;;;;;;;4.72;100.00;101333.38;5231028;28;20058;-71
2022/11/25 07:34:21;;;;;;;9.23;5.13;;;;;;;4.71;100.00;101340.56;5231310;28;20042;-68
2022/11/25 07:36:51;;;;;;;6.95;6.35;;;;;;;4.75;100.00;101355.19;5231481;28;20026;-68
2022/11/25 07:39:22;;;;;;;9.95;7.47;;;;;;;4.79;100.00;101352.09;5229863;28;20032;-67
2022/11/25 07:41:53;;;;;;;9.38;6.68;;;;;;;4.65;100.00;101351.25;5229494;28;20518;-67
2022/11/25 07:44:24;;;;;;;7.13;5.55;;;;;;;4.75;100.00;101368.56;5230382;28;20043;-68
2022/11/25 07:46:54;;;;;;;11.25;5.57;;;;;;;4.73;100.00;101375.97;5228762;28;20232;-67
2022/11/25 07:49:24;;;;;;;7.65;6.80;;;;;;;4.78;100.00;101382.56;5248696;28;20032;-67
2022/11/25 07:51:58;;;;;;;9.43;6.32;;;;;;;4.81;100.00;101387.50;5230618;28;20023;-67
2022/11/25 07:54:29;;;;;;;7.60;7.00;;;;;;;4.84;100.00;101385.25;5230680;28;20038;-68
2022/11/25 07:57:03;;;;;;;7.10;6.50;;;;;;;4.88;100.00;101391.00;5229782;28;20028;-67
2022/11/25 07:59:34;;;;;;;8.68;7.70;;;;;;;4.92;100.00;101390.38;5230268;28;20111;-68
2022/11/25 08:02:05;;;;;;;11.02;7.32;;;;;;;4.97;100.00;101397.78;5230464;28;20033;-67
2022/11/25 08:04:36;;;;;;;7.68;6.97;;;;;;;5.02;100.00;101401.50;5248569;28;20476;-68
2022/11/25 08:07:06;;;;;;;14.77;7.03;;;;;;;5.05;100.00;101405.63;5230465;28;20544;-67
2022/11/25 08:09:37;;;;;;;7.68;6.75;;;;;;;5.08;100.00;101402.53;5230158;28;20032;-67
2022/11/25 08:12:07;;;;;;;7.40;6.90;;;;;;;5.02;100.00;101398.81;5229961;28;20023;-68
2022/11/25 08:14:38;;;;;;;12.13;8.35;;;;;;;5.14;100.00;101409.75;5230332;28;20032;-68
2022/11/25 08:17:09;;;;;;;12.82;6.75;;;;;;;5.22;100.00;101420.22;5230270;28;20090;-67
2022/11/25 08:19:39;;;;;;;7.53;6.93;;;;;;;5.26;100.00;101418.78;5229359;28;20028;-67
2022/11/25 08:22:09;;;;;;;11.50;6.82;;;;;;;5.29;100.00;101422.91;5228187;28;20074;-67
2022/11/25 08:24:40;;;;;;;9.60;7.88;;;;;;;5.31;100.00;101424.34;5229664;28;20451;-67
2022/11/25 08:27:10;;;;;;;11.18;7.35;;;;;;;5.37;100.00;101423.53;5230006;28;20024;-68
2022/11/25 08:29:41;;;;;;;13.80;7.13;;;;;;;5.41;100.00;101411.38;5229217;28;20035;-67
2022/11/25 08:32:11;;;;;;;7.63;6.95;;;;;;;5.55;100.00;101419.34;5229445;28;20024;-67
2022/11/25 08:34:42;;;;;;;11.30;7.15;;;;;;;5.61;100.00;101426.56;5229642;28;20025;-69
2022/11/25 08:37:12;;;;;;;10.68;7.43;;;;;;;5.67;100.00;101428.41;5229597;28;20031;-68
2022/11/25 08:39:43;;;;;;;8.32;7.45;;;;;;;5.71;100.00;101430.47;5229233;28;20050;-67
2022/11/25 08:42:13;;;;;;;16.58;9.27;;;;;;;5.75;100.00;101429.03;5229087;28;20037;-67
2022/11/25 08:44:44;;;;;;;10.18;7.50;;;;;;;5.70;100.00;101414.59;5229495;28;20455;-67
2022/11/25 08:47:14;;;;;;;10.18;6.88;;;;;;;5.91;100.00;101432.28;5229635;28;20541;-67
2022/11/25 08:49:44;;;;;;;8.68;6.53;;;;;;;5.97;100.00;101442.19;5229150;28;20085;-68
2022/11/25 08:52:15;;;;;;;10.70;7.38;;;;;;;6.03;100.00;101446.69;5229217;28;20054;-67
2022/11/25 08:54:45;;;;;;;9.93;8.63;;;;;;;6.02;100.00;101451.25;5229454;28;20029;-67
2022/11/25 08:57:16;;;;;;;20.70;9.73;;;;;;;6.10;100.00;101453.66;5229532;28;20039;-67
2022/11/25 08:59:46;;;;;;;17.30;8.40;;;;;;;6.10;100.00;101448.31;5228984;28;20070;-67
2022/11/25 09:02:17;;;;;;;11.68;7.93;;;;;;;6.22;100.00;101453.00;5246523;28;20060;-67
2022/11/25 09:04:48;;;;;;;16.23;9.50;;;;;;;6.17;100.00;101434.06;5229191;28;20465;-67
2022/11/25 09:07:18;;;;;;;21.70;9.40;;;;;;;6.32;100.00;101448.03;5229393;28;20391;-68
2022/11/25 09:09:48;;;;;;;11.75;6.22;;;;;;;6.38;100.00;101452.50;5228456;28;20499;-67
2022/11/25 09:12:19;;;;;;;24.55;8.07;;;;;;;6.45;100.00;101456.00;5228893;28;20047;-67
2022/11/25 09:14:49;;;;;;;26.33;8.18;;;;;;;6.31;100.00;101417.69;5228930;28;20105;-67
2022/11/25 09:17:20;;;;;;;14.77;7.22;;;;;;;6.56;100.00;101451.81;5228905;28;20040;-67
2022/11/25 09:19:50;;;;;;;11.98;7.72;;;;;;;6.65;100.00;101455.88;5228700;28;20050;-67
2022/11/25 09:22:21;;;;;;;8.35;7.47;;;;;;;6.69;100.00;101455.25;5228663;28;20020;-68
2022/11/25 09:24:51;;;;;;;12.57;6.72;;;;;;;6.73;100.00;101461.00;5228689;28;20047;-67
2022/11/25 09:27:22;;;;;;;14.73;7.32;;;;;;;6.74;100.00;101465.34;5229102;28;20047;-67
2022/11/25 09:29:52;;;;;;;12.23;7.63;;;;;;;6.77;100.00;101470.28;5228366;28;20025;-69
2022/11/25 09:32:23;;;;;;;12.23;6.53;;;;;;;6.82;100.00;101477.69;5228750;28;20029;-68
2022/11/25 09:34:53;;;;;;;7.25;6.35;;;;;;;6.86;100.00;101487.78;5228683;28;20396;-67
2022/11/25 09:37:24;;;;;;;13.43;6.65;;;;;;;6.91;100.00;101504.06;5228545;28;20060;-67
2022/11/25 09:39:54;;;;;;;18.45;8.13;;;;;;;6.96;100.00;101503.38;5246219;28;20031;-67
2022/11/25 09:48:46;;;;;;;24.75;6.82;;;;;;;7.10;100.00;101504.97;5246422;28;20073;-67
2022/11/25 09:51:25;;;;;;;15.82;7.43;;;;;;;7.11;100.00;101514.66;5228125;28;20062;-67
2022/11/25 09:54:02;;;;;;;14.60;6.00;;;;;;;7.15;100.00;101515.88;5228527;28;20025;-67
2022/11/25 09:56:39;;;;;;;14.02;6.50;;;;;;;7.19;100.00;101530.53;5228678;28;20032;-68
2022/11/25 09:59:18;;;;;;;14.50;6.55;;;;;;;7.25;100.00;101526.94;5228416;28;20032;-66
2022/11/25 10:01:56;;;;;;;9.82;6.45;;;;;;;7.23;100.00;101522.84;5246122;28;20496;-67
2022/11/25 10:04:39;;;;;;;12.65;7.25;;;;;;;7.30;100.00;101535.19;5228150;28;20029;-67
2022/11/25 10:07:19;;;;;;;10.15;6.85;;;;;;;7.36;100.00;101536.19;5228149;28;20477;-66
2022/11/25 10:09:51;;;;;;;9.00;8.13;;;;;;;7.41;100.00;101541.72;5227970;28;20437;-67
2022/11/25 10:12:31;;;;;;;6.18;5.38;;;;;;;7.33;100.00;101532.06;5228021;28;20056;-67
2022/11/25 10:15:18;;;;;;;7.20;6.40;;;;;;;7.45;100.00;101546.44;5227858;28;20035;-68
2022/11/25 10:17:53;;;;;;;14.95;6.30;;;;;;;7.49;100.00;101554.09;5228225;28;20032;-67
2022/11/25 10:20:27;;;;;;;7.55;6.05;;;;;;;7.52;100.00;101556.31;5228131;28;20028;-69
2022/11/25 10:23:11;;;;;;;13.63;5.85;;;;;;;7.48;100.00;101549.75;5231731;28;20111;-68
2022/11/25 10:25:45;;;;;;;11.70;5.68;;;;;;;7.57;100.00;101573.44;5250246;28;20075;-67
2022/11/25 10:28:21;;;;;;;6.93;5.88;;;;;;;7.62;100.00;101560.16;5231693;28;20026;-68
2022/11/25 10:31:02;;;;;;;14.45;6.60;;;;;;;7.72;100.00;101565.06;5233150;28;20086;-67
2022/11/25 10:33:46;;;;;;;10.82;5.60;;;;;;;7.75;100.00;101559.25;5233484;28;20107;-68
2022/11/25 10:36:47;;;;;;;11.13;6.47;;;;;;;7.82;100.00;101576.13;5233203;28;20039;-67
2022/11/25 10:39:25;;;;;;;11.23;4.38;;;;;;;7.92;100.00;101563.00;5230232;28;20048;-67
2022/11/25 10:42:18;;;;;;;5.07;4.32;;;;;;;7.95;100.00;101565.25;5231607;28;20128;-67
2022/11/25 10:44:49;;;;;;;6.68;4.68;;;;;;;8.06;100.00;101572.59;5231970;28;20031;-69
2022/11/25 10:47:54;;;;;;;6.80;5.30;;;;;;;8.15;100.00;101583.88;5231807;28;20166;-67
2022/11/25 10:51:01;;;;;;;8.45;3.67;;;;;;;8.17;100.00;101589.03;5231300;28;20064;-67
2022/11/25 10:53:32;;;;;;;6.88;5.10;;;;;;;8.23;100.00;101583.59;5231515;28;20028;-68
2022/11/25 10:56:16;;;;;;;5.10;3.83;;;;;;;8.27;100.00;101582.13;5245800;22;20377;-71
2022/11/25 10:59:36;;;;;;;7.65;3.58;;;;;;;8.40;100.00;101584.69;5231813;28;20027;-71
2022/11/25 11:02:18;;;;;;;6.63;4.03;;;;;;;8.53;100.00;101594.47;5232521;28;20032;-71
2022/11/25 11:04:57;;;;;;;3.95;3.67;;;;;;;8.66;100.00;101598.91;5233035;28;20419;-71
2022/11/25 11:07:32;;;;;;;5.38;3.15;;;;;;;8.74;100.00;101587.81;5232708;28;20092;-70
2022/11/25 11:10:16;;;;;;;8.48;4.60;;;;;;;8.79;100.00;101593.34;5231389;28;20580;-70
2022/11/25 11:13:03;;;;;;;3.72;3.35;;;;;;;8.84;100.00;101601.56;5232635;28;20081;-70
2022/11/25 11:15:40;;;;;;;3.78;3.63;;;;;;;8.93;100.00;101594.84;5232838;28;20119;-73
2022/11/25 11:18:20;;;;;;;9.13;4.68;;;;;;;8.99;100.00;101593.09;5232628;28;20081;-70
2022/11/25 11:20:54;;;;;;;17.55;6.05;;;;;;;9.07;100.00;101603.56;5232520;28;20034;-71
2022/11/25 11:23:27;;;;;;;5.72;3.15;;;;;;;9.07;100.00;101606.25;5233286;28;20027;-70
2022/11/25 11:26:08;;;;;;;10.07;3.78;;;;;;;9.13;100.00;101605.34;5233528;28;20025;-70
2022/11/25 11:28:40;;;;;;;6.63;5.07;;;;;;;9.06;100.00;101591.94;5233193;28;20416;-71
2022/11/25 11:31:21;;;;;;;12.57;3.97;;;;;;;9.30;100.00;101614.41;5234241;28;20052;-70
2022/11/25 11:34:23;;;;;;;5.95;4.50;;;;;;;9.40;100.00;101625.47;5234854;28;20029;-72
2022/11/25 11:37:09;;;;;;;4.80;3.85;;;;;;;9.44;100.00;101626.66;5233709;28;20535;-70
2022/11/25 11:39:49;;;;;;;6.10;3.28;;;;;;;9.47;100.00;101628.91;5252448;28;20021;-70
2022/11/25 11:42:40;;;;;;;6.15;3.72;;;;;;;9.47;100.00;101633.47;5233841;28;20484;-72
2022/11/25 11:45:23;;;;;;;5.45;4.47;;;;;;;9.52;100.00;101625.53;5233008;28;20404;-70
2022/11/25 11:54:58;;;;;;;11.93;5.57;;;;;;;9.65;100.00;101641.50;5251844;28;20055;-69
2022/11/25 11:57:32;;;;;;;11.48;4.32;;;;;;;9.68;100.00;101635.63;5232022;28;20539;-71
2022/11/25 12:00:10;;;;;;;7.60;4.63;;;;;;;9.61;100.00;101624.13;5231598;28;20025;-70
2022/11/25 12:02:59;;;;;;;10.93;4.97;;;;;;;9.77;100.00;101646.94;5250313;28;20031;-70
2022/11/25 12:05:33;;;;;;;5.53;4.47;;;;;;;9.81;100.00;101651.63;5233155;28;20135;-69
2022/11/25 12:08:19;;;;;;;6.10;4.82;;;;;;;9.82;100.00;101652.41;5232970;28;20037;-70
2022/11/25 12:11:09;;;;;;;6.47;3.50;;;;;;;9.83;100.00;101657.59;5243909;22;20413;-67
2022/11/25 12:14:00;;;;;;;11.15;4.70;;;;;;;9.85;100.00;101651.13;5228763;28;20039;-67
2022/11/25 12:16:32;;;;;;;7.18;4.00;;;;;;;9.86;100.00;101661.69;5230258;28;20029;-68